sensor_id;sensor_type;location;lat;lon;timestamp;temperature;humidity
61004;DHT22;46889;37.310;13.582;2022-12-18T00:01:31;14.10;99.90
61004;DHT22;46889;37.310;13.582;2022-12-18T00:04:00;14.10;99.90
61004;DHT22;46889;37.310;13.582;2022-12-18T00:06:28;14.10;99.90
61004;DHT22;46889;37.310;13.582;2022-12-18T00:08:55;14.00;99.90
61004;DHT22;46889;37.310;13.582;2022-12-18T00:11:26;14.00;99.90
61004;DHT22;46889;37.310;13.582;2022-12-18T00:13:54;14.00;99.90
61004;DHT22;46889;37.310;13.582;2022-12-18T00:16:23;14.00;99.90
61004;DHT22;46889;37.310;13.582;2022-12-18T00:18:53;14.00;99.90
61004;DHT22;46889;37.310;13.582;2022-12-18T00:21:24;14.00;99.90
61004;DHT22;46889;37.310;13.582;2022-12-18T00:23:51;14.00;99.90
61004;DHT22;46889;37.310;13.582;2022-12-18T00:26:32;13.90;99.90
61004;DHT22;46889;37.310;13.582;2022-12-18T00:29:13;13.90;99.90
61004;DHT22;46889;37.310;13.582;2022-12-18T00:31:54;13.90;99.90
61004;DHT22;46889;37.310;13.582;2022-12-18T00:34:20;13.90;99.90
61004;DHT22;46889;37.310;13.582;2022-12-18T00:36:48;13.90;99.90
61004;DHT22;46889;37.310;13.582;2022-12-18T00:39:15;13.90;99.90
61004;DHT22;46889;37.310;13.582;2022-12-18T00:42:00;13.90;99.90
61004;DHT22;46889;37.310;13.582;2022-12-18T00:44:48;13.90;99.90
61004;DHT22;46889;37.310;13.582;2022-12-18T00:47:16;13.90;99.90
61004;DHT22;46889;37.310;13.582;2022-12-18T00:49:42;13.90;99.90
61004;DHT22;46889;37.310;13.582;2022-12-18T00:52:08;13.80;99.90
61004;DHT22;46889;37.310;13.582;2022-12-18T00:54:35;13.80;99.90
61004;DHT22;46889;37.310;13.582;2022-12-18T00:57:02;13.80;99.90
61004;DHT22;46889;37.310;13.582;2022-12-18T00:59:28;13.70;99.90
61004;DHT22;46889;37.310;13.582;2022-12-18T01:01:56;13.70;99.90
61004;DHT22;46889;37.310;13.582;2022-12-18T01:04:23;13.70;99.90
61004;DHT22;46889;37.310;13.582;2022-12-18T01:06:50;13.60;99.90
61004;DHT22;46889;37.310;13.582;2022-12-18T01:09:18;13.60;99.90
61004;DHT22;46889;37.310;13.582;2022-12-18T01:11:44;13.60;99.90
61004;DHT22;46889;37.310;13.582;2022-12-18T01:14:10;13.60;99.90
61004;DHT22;46889;37.310;13.582;2022-12-18T01:16:36;13.60;99.90
61004;DHT22;46889;37.310;13.582;2022-12-18T01:19:06;13.60;99.90
61004;DHT22;46889;37.310;13.582;2022-12-18T01:21:32;13.50;99.90
61004;DHT22;46889;37.310;13.582;2022-12-18T01:24:00;13.50;99.90
61004;DHT22;46889;37.310;13.582;2022-12-18T01:26:28;13.50;99.90
61004;DHT22;46889;37.310;13.582;2022-12-18T01:28:56;13.50;99.90
61004;DHT22;46889;37.310;13.582;2022-12-18T01:31:28;13.50;99.90
61004;DHT22;46889;37.310;13.582;2022-12-18T01:33:55;13.40;99.90
61004;DHT22;46889;37.310;13.582;2022-12-18T01:36:27;13.40;99.90
61004;DHT22;46889;37.310;13.582;2022-12-18T01:38:54;13.40;99.90
61004;DHT22;46889;37.310;13.582;2022-12-18T01:41:26;13.40;99.90
61004;DHT22;46889;37.310;13.582;2022-12-18T01:43:59;13.40;99.90
61004;DHT22;46889;37.310;13.582;2022-12-18T01:46:27;13.40;99.90
61004;DHT22;46889;37.310;13.582;2022-12-18T01:49:00;13.50;99.90
61004;DHT22;46889;37.310;13.582;2022-12-18T01:51:27;13.50;99.90
61004;DHT22;46889;37.310;13.582;2022-12-18T01:53:54;13.50;99.90
61004;DHT22;46889;37.310;13.582;2022-12-18T01:56:21;13.50;99.90
61004;DHT22;46889;37.310;13.582;2022-12-18T01:59:01;13.50;99.90
61004;DHT22;46889;37.310;13.582;2022-12-18T02:01:29;13.50;99.90
61004;DHT22;46889;37.310;13.582;2022-12-18T02:03:56;13.50;99.90
61004;DHT22;46889;37.310;13.582;2022-12-18T02:06:41;13.50;99.90
61004;DHT22;46889;37.310;13.582;2022-12-18T02:09:13;13.40;99.90
61004;DHT22;46889;37.310;13.582;2022-12-18T02:12:27;13.40;99.90
61004;DHT22;46889;37.310;13.582;2022-12-18T02:15:16;13.40;99.90
61004;DHT22;46889;37.310;13.582;2022-12-18T02:17:56;13.30;99.90
61004;DHT22;46889;37.310;13.582;2022-12-18T02:29:14;13.30;99.90
61004;DHT22;46889;37.310;13.582;2022-12-18T02:32:02;13.30;99.90
61004;DHT22;46889;37.310;13.582;2022-12-18T02:34:32;13.30;99.90
61004;DHT22;46889;37.310;13.582;2022-12-18T02:37:02;13.30;99.90
61004;DHT22;46889;37.310;13.582;2022-12-18T02:39:32;13.30;99.90
61004;DHT22;46889;37.310;13.582;2022-12-18T02:42:00;13.30;99.90
61004;DHT22;46889;37.310;13.582;2022-12-18T02:44:39;13.20;99.90
61004;DHT22;46889;37.310;13.582;2022-12-18T02:47:10;13.20;99.90
61004;DHT22;46889;37.310;13.582;2022-12-18T02:52:53;13.20;99.90
61004;DHT22;46889;37.310;13.582;2022-12-18T03:01:19;13.10;99.90
61004;DHT22;46889;37.310;13.582;2022-12-18T03:06:53;13.10;99.90
61004;DHT22;46889;37.310;13.582;2022-12-18T03:09:36;13.10;99.90
61004;DHT22;46889;37.310;13.582;2022-12-18T03:12:35;13.10;99.90
61004;DHT22;46889;37.310;13.582;2022-12-18T03:17:52;13.10;99.90
61004;DHT22;46889;37.310;13.582;2022-12-18T03:20:22;13.20;99.90
61004;DHT22;46889;37.310;13.582;2022-12-18T03:22:59;13.10;99.90
61004;DHT22;46889;37.310;13.582;2022-12-18T03:25:28;13.20;99.90
61004;DHT22;46889;37.310;13.582;2022-12-18T03:28:00;13.20;99.90
61004;DHT22;46889;37.310;13.582;2022-12-18T03:30:28;13.20;99.90
61004;DHT22;46889;37.310;13.582;2022-12-18T03:33:16;13.20;99.90
61004;DHT22;46889;37.310;13.582;2022-12-18T03:35:45;13.20;99.90
61004;DHT22;46889;37.310;13.582;2022-12-18T03:38:12;13.10;99.90
61004;DHT22;46889;37.310;13.582;2022-12-18T03:40:45;13.10;99.90
61004;DHT22;46889;37.310;13.582;2022-12-18T03:46:07;13.00;99.90
61004;DHT22;46889;37.310;13.582;2022-12-18T03:48:46;12.90;99.90
61004;DHT22;46889;37.310;13.582;2022-12-18T03:51:23;12.90;99.90
61004;DHT22;46889;37.310;13.582;2022-12-18T03:54:03;12.90;99.90
61004;DHT22;46889;37.310;13.582;2022-12-18T03:56:33;12.90;99.90
61004;DHT22;46889;37.310;13.582;2022-12-18T03:59:04;12.90;99.90
61004;DHT22;46889;37.310;13.582;2022-12-18T04:01:38;12.90;99.90
61004;DHT22;46889;37.310;13.582;2022-12-18T04:04:07;12.90;99.90
61004;DHT22;46889;37.310;13.582;2022-12-18T04:06:37;12.80;99.90
61004;DHT22;46889;37.310;13.582;2022-12-18T04:09:09;12.80;99.90
61004;DHT22;46889;37.310;13.582;2022-12-18T04:11:37;12.80;99.90
61004;DHT22;46889;37.310;13.582;2022-12-18T04:14:04;12.80;99.90
61004;DHT22;46889;37.310;13.582;2022-12-18T04:16:31;12.80;99.90
61004;DHT22;46889;37.310;13.582;2022-12-18T04:19:04;12.80;99.90
61004;DHT22;46889;37.310;13.582;2022-12-18T04:21:30;12.80;99.90
61004;DHT22;46889;37.310;13.582;2022-12-18T04:23:56;12.80;99.90
61004;DHT22;46889;37.310;13.582;2022-12-18T04:26:23;12.70;99.90
61004;DHT22;46889;37.310;13.582;2022-12-18T04:28:50;12.70;99.90
61004;DHT22;46889;37.310;13.582;2022-12-18T04:31:16;12.70;99.90
61004;DHT22;46889;37.310;13.582;2022-12-18T04:33:44;12.60;99.90
61004;DHT22;46889;37.310;13.582;2022-12-18T04:36:10;12.60;99.90
61004;DHT22;46889;37.310;13.582;2022-12-18T04:38:38;12.60;99.90
61004;DHT22;46889;37.310;13.582;2022-12-18T04:41:05;12.60;99.90
61004;DHT22;46889;37.310;13.582;2022-12-18T04:43:31;12.60;99.90
61004;DHT22;46889;37.310;13.582;2022-12-18T04:46:06;12.60;99.90
61004;DHT22;46889;37.310;13.582;2022-12-18T04:48:33;12.60;99.90
61004;DHT22;46889;37.310;13.582;2022-12-18T04:50:59;12.60;99.90
61004;DHT22;46889;37.310;13.582;2022-12-18T04:53:25;12.70;99.90
61004;DHT22;46889;37.310;13.582;2022-12-18T04:56:02;12.70;99.90
61004;DHT22;46889;37.310;13.582;2022-12-18T04:58:28;12.70;99.90
61004;DHT22;46889;37.310;13.582;2022-12-18T05:00:55;12.70;99.90
61004;DHT22;46889;37.310;13.582;2022-12-18T05:03:31;12.70;99.90
61004;DHT22;46889;37.310;13.582;2022-12-18T05:05:57;12.80;99.90
61004;DHT22;46889;37.310;13.582;2022-12-18T05:08:25;12.80;99.90
61004;DHT22;46889;37.310;13.582;2022-12-18T05:11:03;12.90;99.90
61004;DHT22;46889;37.310;13.582;2022-12-18T05:13:30;13.00;99.90
61004;DHT22;46889;37.310;13.582;2022-12-18T05:15:58;12.90;99.90
61004;DHT22;46889;37.310;13.582;2022-12-18T05:18:25;12.90;99.90
61004;DHT22;46889;37.310;13.582;2022-12-18T05:20:53;12.90;99.90
61004;DHT22;46889;37.310;13.582;2022-12-18T05:23:22;12.90;99.90
61004;DHT22;46889;37.310;13.582;2022-12-18T05:25:51;12.90;99.90
61004;DHT22;46889;37.310;13.582;2022-12-18T05:28:18;12.80;99.90
61004;DHT22;46889;37.310;13.582;2022-12-18T05:30:50;12.80;99.90
61004;DHT22;46889;37.310;13.582;2022-12-18T05:33:18;12.80;99.90
61004;DHT22;46889;37.310;13.582;2022-12-18T05:35:44;12.80;99.90
61004;DHT22;46889;37.310;13.582;2022-12-18T05:38:16;12.80;99.90
61004;DHT22;46889;37.310;13.582;2022-12-18T05:40:43;12.80;99.90
61004;DHT22;46889;37.310;13.582;2022-12-18T05:43:09;12.80;99.90
61004;DHT22;46889;37.310;13.582;2022-12-18T05:45:38;12.90;99.90
61004;DHT22;46889;37.310;13.582;2022-12-18T05:48:10;12.90;99.90
61004;DHT22;46889;37.310;13.582;2022-12-18T05:50:42;12.90;99.90
61004;DHT22;46889;37.310;13.582;2022-12-18T05:53:37;12.90;99.90
61004;DHT22;46889;37.310;13.582;2022-12-18T05:56:08;12.90;99.90
61004;DHT22;46889;37.310;13.582;2022-12-18T05:58:34;12.90;99.90
61004;DHT22;46889;37.310;13.582;2022-12-18T06:04:10;12.80;99.90
61004;DHT22;46889;37.310;13.582;2022-12-18T06:06:38;12.70;99.90
61004;DHT22;46889;37.310;13.582;2022-12-18T06:09:05;12.70;99.90
61004;DHT22;46889;37.310;13.582;2022-12-18T06:11:39;12.70;99.90
61004;DHT22;46889;37.310;13.582;2022-12-18T06:14:06;12.70;99.90
61004;DHT22;46889;37.310;13.582;2022-12-18T06:16:32;12.70;99.90
61004;DHT22;46889;37.310;13.582;2022-12-18T06:18:59;12.70;99.90
61004;DHT22;46889;37.310;13.582;2022-12-18T06:21:26;12.70;99.90
61004;DHT22;46889;37.310;13.582;2022-12-18T06:23:53;12.70;99.90
61004;DHT22;46889;37.310;13.582;2022-12-18T06:26:31;12.70;99.90
61004;DHT22;46889;37.310;13.582;2022-12-18T06:28:57;12.80;99.90
61004;DHT22;46889;37.310;13.582;2022-12-18T06:31:23;12.80;99.90
61004;DHT22;46889;37.310;13.582;2022-12-18T06:33:51;12.80;99.90
61004;DHT22;46889;37.310;13.582;2022-12-18T06:36:42;12.80;99.90
61004;DHT22;46889;37.310;13.582;2022-12-18T06:39:14;13.00;99.90
61004;DHT22;46889;37.310;13.582;2022-12-18T06:41:44;13.30;99.90
61004;DHT22;46889;37.310;13.582;2022-12-18T06:44:10;13.70;99.90
61004;DHT22;46889;37.310;13.582;2022-12-18T06:46:38;13.90;99.90
61004;DHT22;46889;37.310;13.582;2022-12-18T06:49:04;14.20;99.90
61004;DHT22;46889;37.310;13.582;2022-12-18T06:51:34;14.20;99.90
61004;DHT22;46889;37.310;13.582;2022-12-18T06:54:01;14.30;99.90
61004;DHT22;46889;37.310;13.582;2022-12-18T06:56:30;14.20;99.90
61004;DHT22;46889;37.310;13.582;2022-12-18T06:58:57;14.10;99.90
61004;DHT22;46889;37.310;13.582;2022-12-18T07:01:27;14.10;99.90
61004;DHT22;46889;37.310;13.582;2022-12-18T07:03:54;13.90;99.90
61004;DHT22;46889;37.310;13.582;2022-12-18T07:06:23;13.90;99.90
61004;DHT22;46889;37.310;13.582;2022-12-18T07:08:51;13.90;99.90
61004;DHT22;46889;37.310;13.582;2022-12-18T07:11:19;14.00;99.90
61004;DHT22;46889;37.310;13.582;2022-12-18T07:13:47;14.50;99.90
61004;DHT22;46889;37.310;13.582;2022-12-18T07:16:17;15.00;99.90
61004;DHT22;46889;37.310;13.582;2022-12-18T07:18:46;15.00;99.90
61004;DHT22;46889;37.310;13.582;2022-12-18T07:21:16;15.30;99.90
61004;DHT22;46889;37.310;13.582;2022-12-18T07:23:45;16.10;99.90
61004;DHT22;46889;37.310;13.582;2022-12-18T07:26:15;16.70;99.90
61004;DHT22;46889;37.310;13.582;2022-12-18T07:29:02;17.30;99.90
61004;DHT22;46889;37.310;13.582;2022-12-18T07:31:30;17.80;99.90
61004;DHT22;46889;37.310;13.582;2022-12-18T07:33:57;18.50;99.90
61004;DHT22;46889;37.310;13.582;2022-12-18T07:36:24;18.80;99.90
61004;DHT22;46889;37.310;13.582;2022-12-18T07:38:53;18.80;99.90
61004;DHT22;46889;37.310;13.582;2022-12-18T07:41:25;18.90;99.90
61004;DHT22;46889;37.310;13.582;2022-12-18T07:43:51;18.30;99.90
61004;DHT22;46889;37.310;13.582;2022-12-18T07:46:18;18.10;99.90
61004;DHT22;46889;37.310;13.582;2022-12-18T07:48:44;18.00;99.90
61004;DHT22;46889;37.310;13.582;2022-12-18T07:51:12;17.50;99.90
61004;DHT22;46889;37.310;13.582;2022-12-18T07:54:00;17.40;99.90
61004;DHT22;46889;37.310;13.582;2022-12-18T07:56:28;17.40;99.90
61004;DHT22;46889;37.310;13.582;2022-12-18T07:58:54;17.00;99.90
61004;DHT22;46889;37.310;13.582;2022-12-18T08:01:20;17.10;99.90
61004;DHT22;46889;37.310;13.582;2022-12-18T08:03:46;17.10;99.90
61004;DHT22;46889;37.310;13.582;2022-12-18T08:06:13;17.10;99.90
61004;DHT22;46889;37.310;13.582;2022-12-18T08:08:55;17.10;99.90
61004;DHT22;46889;37.310;13.582;2022-12-18T08:11:30;17.10;99.90
61004;DHT22;46889;37.310;13.582;2022-12-18T08:13:57;17.40;99.90
61004;DHT22;46889;37.310;13.582;2022-12-18T08:16:24;17.20;99.90
61004;DHT22;46889;37.310;13.582;2022-12-18T08:18:59;17.20;99.90
61004;DHT22;46889;37.310;13.582;2022-12-18T08:21:30;17.40;99.90
61004;DHT22;46889;37.310;13.582;2022-12-18T08:23:58;17.40;99.90
61004;DHT22;46889;37.310;13.582;2022-12-18T08:26:27;17.40;99.90
61004;DHT22;46889;37.310;13.582;2022-12-18T08:28:55;17.50;99.90
61004;DHT22;46889;37.310;13.582;2022-12-18T08:31:21;17.60;99.90
61004;DHT22;46889;37.310;13.582;2022-12-18T08:33:52;17.60;99.90
61004;DHT22;46889;37.310;13.582;2022-12-18T08:36:18;17.60;99.90
61004;DHT22;46889;37.310;13.582;2022-12-18T08:38:45;17.50;99.90
61004;DHT22;46889;37.310;13.582;2022-12-18T08:41:14;17.40;99.90
61004;DHT22;46889;37.310;13.582;2022-12-18T08:43:41;17.30;99.90
61004;DHT22;46889;37.310;13.582;2022-12-18T08:46:43;17.30;99.90
61004;DHT22;46889;37.310;13.582;2022-12-18T08:49:10;17.20;99.90
61004;DHT22;46889;37.310;13.582;2022-12-18T08:51:37;17.00;99.90
61004;DHT22;46889;37.310;13.582;2022-12-18T08:54:12;17.00;99.90
61004;DHT22;46889;37.310;13.582;2022-12-18T08:56:39;16.90;99.90
61004;DHT22;46889;37.310;13.582;2022-12-18T08:59:06;16.90;99.90
61004;DHT22;46889;37.310;13.582;2022-12-18T09:01:33;17.00;99.90
61004;DHT22;46889;37.310;13.582;2022-12-18T09:04:00;17.00;99.90
61004;DHT22;46889;37.310;13.582;2022-12-18T09:06:26;17.00;99.90
61004;DHT22;46889;37.310;13.582;2022-12-18T09:08:54;17.00;99.90
61004;DHT22;46889;37.310;13.582;2022-12-18T09:11:24;17.20;99.90
61004;DHT22;46889;37.310;13.582;2022-12-18T09:13:51;17.20;99.90
61004;DHT22;46889;37.310;13.582;2022-12-18T09:16:18;17.40;99.90
61004;DHT22;46889;37.310;13.582;2022-12-18T09:18:45;17.40;99.90
61004;DHT22;46889;37.310;13.582;2022-12-18T09:21:19;17.30;99.90
61004;DHT22;46889;37.310;13.582;2022-12-18T09:23:50;17.30;99.90
61004;DHT22;46889;37.310;13.582;2022-12-18T09:26:16;17.20;99.90
61004;DHT22;46889;37.310;13.582;2022-12-18T09:28:44;17.10;99.90
61004;DHT22;46889;37.310;13.582;2022-12-18T09:31:12;17.10;99.90
61004;DHT22;46889;37.310;13.582;2022-12-18T09:33:38;17.10;99.90
61004;DHT22;46889;37.310;13.582;2022-12-18T09:36:06;17.30;99.90
61004;DHT22;46889;37.310;13.582;2022-12-18T09:38:34;17.40;99.90
61004;DHT22;46889;37.310;13.582;2022-12-18T09:43:55;17.50;99.90
61004;DHT22;46889;37.310;13.582;2022-12-18T09:46:45;17.40;99.90
61004;DHT22;46889;37.310;13.582;2022-12-18T09:49:16;17.20;99.90
61004;DHT22;46889;37.310;13.582;2022-12-18T09:52:02;17.10;99.90
61004;DHT22;46889;37.310;13.582;2022-12-18T09:54:45;17.00;99.90
61004;DHT22;46889;37.310;13.582;2022-12-18T09:57:22;17.10;99.90
61004;DHT22;46889;37.310;13.582;2022-12-18T10:00:24;17.10;99.90
61004;DHT22;46889;37.310;13.582;2022-12-18T10:03:03;17.10;99.90
61004;DHT22;46889;37.310;13.582;2022-12-18T10:17:28;18.00;99.90
61004;DHT22;46889;37.310;13.582;2022-12-18T10:28:46;18.10;99.90
61004;DHT22;46889;37.310;13.582;2022-12-18T10:31:23;18.10;99.90
61004;DHT22;46889;37.310;13.582;2022-12-18T10:33:53;18.40;99.90
61004;DHT22;46889;37.310;13.582;2022-12-18T10:36:22;18.50;99.90
61004;DHT22;46889;37.310;13.582;2022-12-18T10:38:48;18.60;99.90
61004;DHT22;46889;37.310;13.582;2022-12-18T10:43:44;18.50;99.90
61004;DHT22;46889;37.310;13.582;2022-12-18T10:46:19;18.60;99.90
61004;DHT22;46889;37.310;13.582;2022-12-18T10:48:56;18.70;99.90
61004;DHT22;46889;37.310;13.582;2022-12-18T10:51:24;18.90;99.90
61004;DHT22;46889;37.310;13.582;2022-12-18T10:54:20;18.70;99.90
61004;DHT22;46889;37.310;13.582;2022-12-18T10:56:47;18.80;99.90
61004;DHT22;46889;37.310;13.582;2022-12-18T10:59:15;18.90;99.90
61004;DHT22;46889;37.310;13.582;2022-12-18T11:01:56;19.10;99.90
61004;DHT22;46889;37.310;13.582;2022-12-18T11:04:24;19.10;99.90
61004;DHT22;46889;37.310;13.582;2022-12-18T11:07:11;19.00;99.90
61004;DHT22;46889;37.310;13.582;2022-12-18T11:09:39;19.10;99.90
61004;DHT22;46889;37.310;13.582;2022-12-18T11:12:18;19.20;99.90
61004;DHT22;46889;37.310;13.582;2022-12-18T11:14:47;19.70;99.90
61004;DHT22;46889;37.310;13.582;2022-12-18T11:17:32;19.40;99.90
61004;DHT22;46889;37.310;13.582;2022-12-18T11:20:06;19.40;99.90
61004;DHT22;46889;37.310;13.582;2022-12-18T11:22:36;19.20;99.90
61004;DHT22;46889;37.310;13.582;2022-12-18T11:27:51;18.60;99.90
61004;DHT22;46889;37.310;13.582;2022-12-18T11:30:34;18.60;99.90
61004;DHT22;46889;37.310;13.582;2022-12-18T11:33:26;18.60;99.90
61004;DHT22;46889;37.310;13.582;2022-12-18T11:35:53;18.50;99.90
61004;DHT22;46889;37.310;13.582;2022-12-18T11:38:32;18.70;99.90
61004;DHT22;46889;37.310;13.582;2022-12-18T11:43:33;19.30;99.90
61004;DHT22;46889;37.310;13.582;2022-12-18T11:46:17;19.30;99.90
61004;DHT22;46889;37.310;13.582;2022-12-18T11:48:46;19.10;99.90
61004;DHT22;46889;37.310;13.582;2022-12-18T11:51:28;19.10;99.90
61004;DHT22;46889;37.310;13.582;2022-12-18T11:53:57;19.30;99.90
61004;DHT22;46889;37.310;13.582;2022-12-18T11:56:36;19.40;99.90
61004;DHT22;46889;37.310;13.582;2022-12-18T11:59:50;19.20;99.90
61004;DHT22;46889;37.310;13.582;2022-12-18T12:02:46;19.40;99.90
61004;DHT22;46889;37.310;13.582;2022-12-18T12:11:06;19.20;99.90
61004;DHT22;46889;37.310;13.582;2022-12-18T12:13:42;19.20;99.90
61004;DHT22;46889;37.310;13.582;2022-12-18T12:16:24;19.20;99.90
61004;DHT22;46889;37.310;13.582;2022-12-18T12:19:21;19.40;99.90
61004;DHT22;46889;37.310;13.582;2022-12-18T12:22:20;19.40;99.90
61004;DHT22;46889;37.310;13.582;2022-12-18T12:25:13;19.50;99.90
61004;DHT22;46889;37.310;13.582;2022-12-18T12:31:11;19.90;99.90
61004;DHT22;46889;37.310;13.582;2022-12-18T12:36:07;19.70;99.90
61004;DHT22;46889;37.310;13.582;2022-12-18T12:38:41;19.80;99.90
61004;DHT22;46889;37.310;13.582;2022-12-18T12:41:15;19.90;99.90
61004;DHT22;46889;37.310;13.582;2022-12-18T12:44:06;20.00;99.90
61004;DHT22;46889;37.310;13.582;2022-12-18T12:46:37;19.80;99.90
61004;DHT22;46889;37.310;13.582;2022-12-18T12:49:16;19.70;99.90
61004;DHT22;46889;37.310;13.582;2022-12-18T12:52:06;19.60;99.90
61004;DHT22;46889;37.310;13.582;2022-12-18T12:54:37;19.70;99.90
61004;DHT22;46889;37.310;13.582;2022-12-18T12:57:35;19.90;99.90
61004;DHT22;46889;37.310;13.582;2022-12-18T13:00:10;20.10;99.90
61004;DHT22;46889;37.310;13.582;2022-12-18T13:03:06;20.30;99.90
61004;DHT22;46889;37.310;13.582;2022-12-18T13:05:49;19.90;99.90
61004;DHT22;46889;37.310;13.582;2022-12-18T13:08:29;19.40;99.90
61004;DHT22;46889;37.310;13.582;2022-12-18T13:11:04;19.10;99.90
61004;DHT22;46889;37.310;13.582;2022-12-18T13:14:21;19.00;99.90
61004;DHT22;46889;37.310;13.582;2022-12-18T13:16:47;19.20;99.90
61004;DHT22;46889;37.310;13.582;2022-12-18T13:19:22;19.40;99.90
61004;DHT22;46889;37.310;13.582;2022-12-18T13:21:55;19.40;99.90
61004;DHT22;46889;37.310;13.582;2022-12-18T13:24:30;19.60;99.90
61004;DHT22;46889;37.310;13.582;2022-12-18T13:26:56;19.70;99.90
61004;DHT22;46889;37.310;13.582;2022-12-18T13:29:44;19.50;99.90
61004;DHT22;46889;37.310;13.582;2022-12-18T13:32:25;19.30;99.90
61004;DHT22;46889;37.310;13.582;2022-12-18T13:37:50;19.60;99.90
61004;DHT22;46889;37.310;13.582;2022-12-18T13:43:40;19.50;99.90
61004;DHT22;46889;37.310;13.582;2022-12-18T13:46:29;19.50;99.90
61004;DHT22;46889;37.310;13.582;2022-12-18T13:51:31;19.60;99.90
61004;DHT22;46889;37.310;13.582;2022-12-18T13:54:00;19.70;99.90
61004;DHT22;46889;37.310;13.582;2022-12-18T13:56:29;19.60;99.90
61004;DHT22;46889;37.310;13.582;2022-12-18T14:01:55;19.50;99.90
61004;DHT22;46889;37.310;13.582;2022-12-18T14:04:33;19.40;99.90
61004;DHT22;46889;37.310;13.582;2022-12-18T14:10:02;19.60;99.90
61004;DHT22;46889;37.310;13.582;2022-12-18T14:12:30;19.80;99.90
61004;DHT22;46889;37.310;13.582;2022-12-18T14:20:25;19.70;99.90
61004;DHT22;46889;37.310;13.582;2022-12-18T14:22:57;19.60;99.90
61004;DHT22;46889;37.310;13.582;2022-12-18T14:25:29;19.60;99.90
61004;DHT22;46889;37.310;13.582;2022-12-18T14:30:39;19.60;99.90
61004;DHT22;46889;37.310;13.582;2022-12-18T14:36:00;19.40;99.90
61004;DHT22;46889;37.310;13.582;2022-12-18T14:38:37;19.30;99.90
61004;DHT22;46889;37.310;13.582;2022-12-18T14:41:14;19.10;99.90
61004;DHT22;46889;37.310;13.582;2022-12-18T14:43:43;19.00;99.90
61004;DHT22;46889;37.310;13.582;2022-12-18T14:46:49;18.90;99.90
61004;DHT22;46889;37.310;13.582;2022-12-18T14:49:30;18.90;99.90
61004;DHT22;46889;37.310;13.582;2022-12-18T14:52:01;18.70;99.90
61004;DHT22;46889;37.310;13.582;2022-12-18T14:54:47;18.90;99.90
61004;DHT22;46889;37.310;13.582;2022-12-18T14:57:25;19.00;99.90
61004;DHT22;46889;37.310;13.582;2022-12-18T15:00:11;19.00;99.90
61004;DHT22;46889;37.310;13.582;2022-12-18T15:02:40;19.20;99.90
61004;DHT22;46889;37.310;13.582;2022-12-18T15:05:20;19.00;99.90
61004;DHT22;46889;37.310;13.582;2022-12-18T15:07:52;18.60;99.90
61004;DHT22;46889;37.310;13.582;2022-12-18T15:10:26;18.40;99.90
61004;DHT22;46889;37.310;13.582;2022-12-18T15:25:55;18.30;99.90
61004;DHT22;46889;37.310;13.582;2022-12-18T15:28:37;18.00;99.90
61004;DHT22;46889;37.310;13.582;2022-12-18T15:31:35;17.80;99.90
61004;DHT22;46889;37.310;13.582;2022-12-18T15:34:23;17.70;99.90
61004;DHT22;46889;37.310;13.582;2022-12-18T15:36:51;17.70;99.90
61004;DHT22;46889;37.310;13.582;2022-12-18T15:39:17;17.70;99.90
61004;DHT22;46889;37.310;13.582;2022-12-18T15:41:52;17.70;99.90
61004;DHT22;46889;37.310;13.582;2022-12-18T15:44:37;17.70;99.90
61004;DHT22;46889;37.310;13.582;2022-12-18T15:47:10;17.70;99.90
61004;DHT22;46889;37.310;13.582;2022-12-18T15:49:37;17.70;99.90
61004;DHT22;46889;37.310;13.582;2022-12-18T15:52:03;17.60;99.90
61004;DHT22;46889;37.310;13.582;2022-12-18T15:54:29;17.50;99.90
61004;DHT22;46889;37.310;13.582;2022-12-18T15:57:13;17.30;99.90
61004;DHT22;46889;37.310;13.582;2022-12-18T15:59:52;17.20;99.90
61004;DHT22;46889;37.310;13.582;2022-12-18T16:02:20;17.10;99.90
61004;DHT22;46889;37.310;13.582;2022-12-18T16:04:49;17.00;99.90
61004;DHT22;46889;37.310;13.582;2022-12-18T16:20:18;16.80;99.90
61004;DHT22;46889;37.310;13.582;2022-12-18T16:23:03;16.90;99.90
61004;DHT22;46889;37.310;13.582;2022-12-18T16:25:30;16.80;99.90
61004;DHT22;46889;37.310;13.582;2022-12-18T16:27:56;16.70;99.90
61004;DHT22;46889;37.310;13.582;2022-12-18T16:30:25;16.80;99.90
61004;DHT22;46889;37.310;13.582;2022-12-18T16:32:57;16.80;99.90
61004;DHT22;46889;37.310;13.582;2022-12-18T16:35:25;16.70;99.90
61004;DHT22;46889;37.310;13.582;2022-12-18T16:37:52;16.70;99.90
61004;DHT22;46889;37.310;13.582;2022-12-18T16:40:18;16.60;99.90
61004;DHT22;46889;37.310;13.582;2022-12-18T16:42:45;16.60;99.90
61004;DHT22;46889;37.310;13.582;2022-12-18T16:45:15;16.60;99.90
61004;DHT22;46889;37.310;13.582;2022-12-18T16:47:46;16.50;99.90
61004;DHT22;46889;37.310;13.582;2022-12-18T16:50:14;16.40;99.90
61004;DHT22;46889;37.310;13.582;2022-12-18T16:52:43;16.30;99.90
61004;DHT22;46889;37.310;13.582;2022-12-18T16:55:13;16.30;99.90
61004;DHT22;46889;37.310;13.582;2022-12-18T16:57:45;16.10;99.90
61004;DHT22;46889;37.310;13.582;2022-12-18T17:00:12;16.00;99.90
61004;DHT22;46889;37.310;13.582;2022-12-18T17:02:38;16.00;99.90
61004;DHT22;46889;37.310;13.582;2022-12-18T17:05:04;15.90;99.90
61004;DHT22;46889;37.310;13.582;2022-12-18T17:07:31;15.80;99.90
61004;DHT22;46889;37.310;13.582;2022-12-18T17:09:58;15.80;99.90
61004;DHT22;46889;37.310;13.582;2022-12-18T17:12:29;15.90;99.90
61004;DHT22;46889;37.310;13.582;2022-12-18T17:14:55;15.80;99.90
61004;DHT22;46889;37.310;13.582;2022-12-18T17:17:22;15.80;99.90
61004;DHT22;46889;37.310;13.582;2022-12-18T17:19:50;15.60;99.90
61004;DHT22;46889;37.310;13.582;2022-12-18T17:22:16;15.60;99.90
61004;DHT22;46889;37.310;13.582;2022-12-18T17:24:44;15.60;99.90
61004;DHT22;46889;37.310;13.582;2022-12-18T17:27:36;15.50;99.90
61004;DHT22;46889;37.310;13.582;2022-12-18T17:30:25;15.50;99.90
61004;DHT22;46889;37.310;13.582;2022-12-18T17:32:57;15.50;99.90
61004;DHT22;46889;37.310;13.582;2022-12-18T17:35:25;15.50;99.90
61004;DHT22;46889;37.310;13.582;2022-12-18T17:37:51;15.50;99.90
61004;DHT22;46889;37.310;13.582;2022-12-18T17:40:18;15.50;99.90
61004;DHT22;46889;37.310;13.582;2022-12-18T17:42:44;15.50;99.90
61004;DHT22;46889;37.310;13.582;2022-12-18T17:45:14;15.40;99.90
61004;DHT22;46889;37.310;13.582;2022-12-18T17:47:41;15.40;99.90
61004;DHT22;46889;37.310;13.582;2022-12-18T17:50:08;15.40;99.90
61004;DHT22;46889;37.310;13.582;2022-12-18T17:52:34;15.30;99.90